Time;durP1;ratioP1;P1;durP2;ratioP2;P2;SDS_P1;SDS_P2;PMS_P1;PMS_P2;Temp;Humidity;BMP_temperature;BMP_pressure;BME280_temperature;BME280_humidity;BME280_pressure;Samples;Min_cycle;Max_cycle;Signal;HPM_P1;HPM_P2
2022/11/05 07:15:44;;;;;;;1.25;1.10;;;;;;;10.49;71.40;96675.88;6215385;22;20530;-80
2022/11/05 07:18:12;;;;;;;2.58;1.45;;;;;;;10.49;71.02;96688.91;6215895;23;20025;-80
2022/11/05 07:20:40;;;;;;;1.38;1.27;;;;;;;10.50;71.24;96695.72;6215644;23;20017;-80
2022/11/05 07:26:55;;;;;;;1.63;1.52;;;;;;;10.43;71.07;96702.66;6216324;23;20024;-80
2022/11/05 07:29:23;;;;;;;1.95;1.85;;;;;;;10.38;71.32;96709.38;6215686;23;20025;-80
2022/11/05 07:31:52;;;;;;;2.50;2.30;;;;;;;10.33;71.47;96716.94;6225549;23;20024;-81
2022/11/05 07:34:20;;;;;;;2.50;2.30;;;;;;;10.30;71.78;96716.28;6235319;23;20013;-81
2022/11/05 07:36:49;;;;;;;2.50;2.30;;;;;;;10.29;71.93;96727.69;6226051;23;20051;-81
2022/11/05 07:39:17;;;;;;;3.58;2.20;;;;;;;10.29;72.25;96716.47;6217314;23;20479;-83
2022/11/05 07:41:45;;;;;;;1.77;1.67;;;;;;;10.30;72.49;96729.34;6216938;23;20051;-80
2022/11/05 07:44:16;;;;;;;2.10;1.90;;;;;;;10.29;72.33;96725.09;6215664;23;20020;-80
2022/11/05 07:50:45;;;;;;;3.03;2.83;;;;;;;10.30;72.97;96728.53;6153657;23;20033;-82
2022/11/05 07:56:32;;;;;;;20.52;11.82;;;;;;;10.36;73.57;96738.22;6242819;22;20020;-81
2022/11/05 07:59:03;;;;;;;4.57;3.67;;;;;;;10.37;72.73;96739.88;6249842;23;20020;-80
2022/11/05 08:01:31;;;;;;;5.13;4.18;;;;;;;10.42;73.22;96736.72;6244322;23;20024;-75
2022/11/05 08:09:29;;;;;;;6.13;4.37;;;;;;;10.53;73.36;96749.31;6248450;22;20277;-81
2022/11/05 08:12:01;;;;;;;9.55;4.47;;;;;;;10.54;73.27;96750.97;6246713;23;20249;-81
2022/11/05 08:14:42;;;;;;;11.50;8.43;;;;;;;10.55;73.45;96749.97;6233754;23;20016;-81
2022/11/05 08:21:20;;;;;;;13.40;9.13;;;;;;;10.60;73.51;96755.44;6232998;23;20076;-83
2022/11/05 08:53:44;;;;;;;10.15;6.00;;;;;;;10.79;73.22;96776.81;6165020;22;20020;-76
2022/11/05 08:56:11;;;;;;;4.85;4.35;;;;;;;10.81;73.18;96777.44;6215533;23;20079;-77
2022/11/05 08:58:39;;;;;;;6.90;4.93;;;;;;;10.81;72.77;96772.22;6215264;23;20064;-78
2022/11/05 09:01:06;;;;;;;4.90;4.43;;;;;;;10.81;73.08;96773.03;6215324;23;20021;-77
2022/11/05 09:03:34;;;;;;;4.80;4.10;;;;;;;10.83;73.05;96780.69;6215328;23;20028;-77
2022/11/05 09:06:01;;;;;;;4.20;3.80;;;;;;;10.83;72.96;96781.50;6215956;23;20024;-77
2022/11/05 09:08:29;;;;;;;7.80;4.18;;;;;;;10.85;72.81;96789.16;6215278;23;20021;-76
2022/11/05 09:10:58;;;;;;;7.38;5.68;;;;;;;10.87;72.90;96792.38;6215045;23;20473;-85
2022/11/05 09:13:26;;;;;;;63.05;41.58;;;;;;;10.91;73.67;96781.41;6217937;23;20068;-89
2022/11/05 09:15:54;;;;;;;16.90;10.85;;;;;;;10.97;73.65;96787.69;6219089;23;20027;-77
2022/11/05 09:18:21;;;;;;;6.88;5.35;;;;;;;10.99;72.77;96788.34;6215288;23;20352;-77
2022/11/05 09:20:49;;;;;;;7.13;5.20;;;;;;;11.01;72.73;96790.78;6216102;23;20017;-77
2022/11/05 09:23:16;;;;;;;5.28;4.57;;;;;;;11.01;72.66;96791.56;6215685;23;20021;-77
2022/11/05 09:25:44;;;;;;;5.65;4.60;;;;;;;11.05;72.60;96795.44;6215689;23;20460;-77
2022/11/05 09:28:15;;;;;;;6.45;5.20;;;;;;;11.06;72.49;96804.91;6215827;23;20083;-77
2022/11/05 09:30:45;;;;;;;7.30;5.55;;;;;;;11.08;72.51;96805.53;6215753;23;20074;-78
2022/11/05 09:33:13;;;;;;;7.15;5.22;;;;;;;11.08;72.55;96800.31;6215691;23;20025;-77
2022/11/05 09:35:42;;;;;;;5.47;4.55;;;;;;;11.09;72.40;96807.16;6216146;23;20028;-77
2022/11/05 09:38:10;;;;;;;6.13;4.60;;;;;;;11.13;72.36;96808.41;6215732;23;20034;-77
2022/11/05 09:40:42;;;;;;;6.70;4.78;;;;;;;11.17;72.65;96813.28;6215957;23;20539;-80
2022/11/05 09:43:16;;;;;;;;;;;;;;;11.19;72.13;96819.13;6215341;23;20016;-77
2022/11/05 09:45:47;;;;;;;6.72;4.90;;;;;;;11.13;71.60;96812.84;6216531;23;20240;-78
2022/11/05 09:48:19;;;;;;;4.72;4.32;;;;;;;11.11;71.86;96817.44;6216462;23;20029;-82
2022/11/05 09:50:48;;;;;;;5.13;4.63;;;;;;;11.17;72.85;96814.06;6219611;23;20026;-81
2022/11/05 09:53:18;;;;;;;6.75;4.78;;;;;;;11.23;72.99;96821.19;6218266;23;20507;-78
2022/11/05 09:55:50;;;;;;;5.03;4.53;;;;;;;11.30;73.05;96818.66;6217479;23;20465;-77
2022/11/05 09:58:22;;;;;;;4.88;4.32;;;;;;;11.30;72.22;96824.72;6214730;23;20024;-76
2022/11/05 10:00:57;;;;;;;6.32;4.15;;;;;;;11.28;71.72;96831.09;6215543;23;20025;-76
2022/11/05 10:03:27;;;;;;;4.93;2.97;;;;;;;11.26;70.92;96833.06;6212436;23;20086;-76
2022/11/05 10:06:00;;;;;;;6.60;5.18;;;;;;;11.25;71.13;96836.69;6215258;23;20020;-76
2022/11/05 10:08:32;;;;;;;4.82;4.13;;;;;;;11.24;71.17;96840.28;6213879;23;20036;-76
2022/11/05 10:11:07;;;;;;;4.97;3.22;;;;;;;11.25;71.84;96841.91;6214997;23;20043;-76
2022/11/05 10:13:39;;;;;;;5.32;3.33;;;;;;;11.30;71.81;96845.63;6214812;23;20028;-76
2022/11/05 10:16:20;;;;;;;3.70;3.05;;;;;;;11.35;72.30;96847.69;6215385;23;20043;-77
2022/11/05 10:18:53;;;;;;;2.63;2.40;;;;;;;11.42;71.67;96840.75;6214850;23;20027;-77
2022/11/05 10:21:21;;;;;;;3.05;2.80;;;;;;;11.47;71.28;96848.84;6215416;23;20039;-78
2022/11/05 10:24:15;;;;;;;2.92;2.67;;;;;;;11.89;71.45;96844.75;6214827;23;20024;-77
2022/11/05 10:26:45;;;;;;;3.30;2.95;;;;;;;12.81;68.26;96845.03;6215564;23;20027;-76
2022/11/05 10:29:15;;;;;;;3.08;2.75;;;;;;;13.40;65.85;96844.63;6215505;23;20021;-77
2022/11/05 10:31:44;;;;;;;3.40;2.97;;;;;;;13.90;63.84;96852.34;6215927;23;20020;-77
2022/11/05 10:34:16;;;;;;;2.90;2.63;;;;;;;15.78;60.29;96849.53;6217662;23;20025;-78
2022/11/05 10:36:44;;;;;;;2.70;2.30;;;;;;;18.18;54.20;96855.47;6217972;23;20468;-78
2022/11/05 10:39:15;;;;;;;3.08;2.65;;;;;;;18.86;49.97;96844.53;6220081;23;20021;-79
2022/11/05 10:41:59;;;;;;;4.10;2.65;;;;;;;18.02;51.42;96851.63;6219073;23;20028;-78
2022/11/05 10:44:32;;;;;;;2.97;2.70;;;;;;;16.85;53.43;96850.53;6218092;23;20360;-78
2022/11/05 10:47:22;;;;;;;2.92;2.63;;;;;;;16.19;55.77;96846.53;6216939;23;20090;-76
2022/11/05 10:49:57;;;;;;;2.75;2.20;;;;;;;15.88;56.66;96849.13;6213471;23;20024;-78
2022/11/05 10:52:28;;;;;;;4.00;2.20;;;;;;;15.43;57.01;96847.19;6216679;23;20094;-77
2022/11/05 10:55:00;;;;;;;2.55;2.03;;;;;;;15.10;58.70;96848.06;6216601;23;20021;-78
2022/11/05 10:57:31;;;;;;;4.63;2.10;;;;;;;14.88;58.89;96839.59;6216853;23;20021;-77
2022/11/05 11:00:19;;;;;;;2.60;2.20;;;;;;;14.47;59.42;96842.38;6216658;23;20360;-78
2022/11/05 11:02:50;;;;;;;2.65;1.85;;;;;;;14.26;61.21;96841.53;6218999;23;20044;-77
2022/11/05 11:05:24;;;;;;;2.55;1.90;;;;;;;14.22;60.36;96850.81;6217645;23;20669;-77
2022/11/05 11:07:59;;;;;;;2.15;1.73;;;;;;;14.21;60.56;96849.19;6217469;23;20020;-78
2022/11/05 11:10:29;;;;;;;2.60;2.30;;;;;;;14.49;60.63;96853.50;6218099;23;20100;-77
2022/11/05 11:12:57;;;;;;;8.23;3.97;;;;;;;14.79;60.13;96857.38;6217149;23;20017;-76
2022/11/05 11:15:27;;;;;;;4.45;2.35;;;;;;;14.63;59.88;96857.78;6217815;23;20024;-77
2022/11/05 11:17:56;;;;;;;3.45;2.70;;;;;;;14.35;60.76;96860.53;6217020;23;20082;-78
2022/11/05 11:20:27;;;;;;;7.47;4.80;;;;;;;14.08;61.16;96862.28;6216969;23;20021;-77
2022/11/05 11:23:03;;;;;;;66.75;42.90;;;;;;;13.83;61.83;96867.25;6216792;23;20013;-76
2022/11/05 11:25:39;;;;;;;5.75;4.72;;;;;;;13.67;62.66;96866.56;6219213;23;20393;-77
2022/11/05 11:28:16;;;;;;;2.95;2.75;;;;;;;13.55;63.67;96870.72;6217886;23;20025;-77
2022/11/05 11:30:49;;;;;;;3.78;3.10;;;;;;;13.44;63.50;96872.06;6218785;23;20024;-78
2022/11/05 11:33:26;;;;;;;2.28;2.08;;;;;;;13.32;63.26;96865.78;6219682;23;20028;-78
2022/11/05 11:35:54;;;;;;;4.15;2.60;;;;;;;13.23;63.08;96866.88;6221070;23;20027;-77
2022/11/05 11:38:23;;;;;;;3.20;2.35;;;;;;;13.13;62.96;96864.59;6221229;23;20027;-77
2022/11/05 11:40:59;;;;;;;2.70;2.50;;;;;;;13.03;63.79;96866.75;6220970;23;20099;-77
2022/11/05 11:43:30;;;;;;;9.88;7.53;;;;;;;12.91;63.41;96876.94;6220128;23;20099;-77
2022/11/05 11:45:58;;;;;;;21.17;16.42;;;;;;;12.82;63.80;96875.47;6220758;23;20086;-77
2022/11/05 11:48:35;;;;;;;6.60;5.07;;;;;;;12.74;64.20;96881.63;6220198;23;20095;-77
2022/11/05 11:51:18;;;;;;;5.63;3.40;;;;;;;12.65;64.48;96880.13;6219760;23;20079;-77
2022/11/05 11:53:48;;;;;;;3.38;2.97;;;;;;;12.58;64.11;96885.31;6219640;23;20479;-77
2022/11/05 11:56:18;;;;;;;3.75;3.35;;;;;;;12.53;65.29;96887.69;6220005;23;20021;-77
2022/11/05 11:58:48;;;;;;;9.95;7.07;;;;;;;12.48;65.15;96890.03;6219329;23;20024;-77
2022/11/05 12:01:35;;;;;;;7.55;5.50;;;;;;;12.43;64.85;96887.97;6219607;23;20017;-78
2022/11/05 12:04:14;;;;;;;3.90;3.13;;;;;;;12.39;66.47;96888.53;6219669;23;20024;-77
2022/11/05 12:06:48;;;;;;;3.63;3.05;;;;;;;12.37;66.49;96891.34;6220081;23;20025;-78
2022/11/05 12:09:24;;;;;;;2.90;2.65;;;;;;;12.34;67.00;96897.75;6218564;23;20027;-77
2022/11/05 12:12:00;;;;;;;3.70;2.20;;;;;;;12.34;67.43;96894.34;6217494;23;20020;-77
2022/11/05 12:14:36;;;;;;;3.17;2.88;;;;;;;12.32;66.80;96894.50;6218549;23;20028;-77
2022/11/05 12:17:25;;;;;;;3.22;2.45;;;;;;;12.32;67.08;96896.31;6219701;23;20514;-78
2022/11/05 12:20:07;;;;;;;5.78;3.63;;;;;;;12.31;67.75;96897.31;6219080;23;20326;-77
2022/11/05 12:22:55;;;;;;;4.30;3.67;;;;;;;12.28;67.76;96890.63;6217606;23;20028;-79
2022/11/05 12:25:28;;;;;;;4.60;3.92;;;;;;;12.24;67.43;96897.22;6218500;23;20032;-78
2022/11/05 12:28:10;;;;;;;4.50;4.05;;;;;;;12.21;68.12;96899.44;6217771;23;20024;-77
2022/11/05 12:30:47;;;;;;;4.57;4.03;;;;;;;12.17;68.13;96901.59;6218261;23;20096;-78
2022/11/05 12:33:26;;;;;;;4.70;3.95;;;;;;;12.14;68.89;96901.97;6218068;23;20027;-78
2022/11/05 12:36:10;;;;;;;4.70;3.72;;;;;;;12.12;68.19;96901.34;6219071;23;20023;-78
2022/11/05 12:39:03;;;;;;;6.07;4.10;;;;;;;12.09;68.74;96906.91;6217123;23;20502;-78
2022/11/05 12:41:34;;;;;;;6.22;4.10;;;;;;;12.04;68.20;96909.28;6218325;23;20031;-79
2022/11/05 12:44:15;;;;;;;7.35;4.40;;;;;;;11.99;67.91;96912.44;6217611;23;20024;-78
2022/11/05 12:46:50;;;;;;;4.43;3.03;;;;;;;11.93;67.32;96897.50;6217577;23;20016;-79
2022/11/05 12:49:34;;;;;;;3.60;2.83;;;;;;;11.89;68.16;96901.44;6216663;23;20456;-77
2022/11/05 12:52:17;;;;;;;4.10;2.75;;;;;;;11.82;67.28;96906.56;6216935;23;20020;-78
2022/11/05 12:55:00;;;;;;;3.17;2.65;;;;;;;11.78;67.44;96904.50;6216941;23;20024;-77
2022/11/05 12:57:31;;;;;;;4.55;3.00;;;;;;;11.71;67.37;96904.41;6216426;23;20020;-77
2022/11/05 13:00:14;;;;;;;4.25;3.45;;;;;;;11.63;67.69;96907.94;6216248;23;20028;-78
2022/11/05 13:02:50;;;;;;;3.95;3.03;;;;;;;11.59;67.26;96895.41;6216573;23;20017;-79
2022/11/05 13:05:22;;;;;;;8.18;4.35;;;;;;;11.56;67.83;96899.19;6216642;23;20024;-77
2022/11/05 13:07:56;;;;;;;6.60;4.75;;;;;;;11.52;68.13;96901.38;6215407;23;20027;-78
2022/11/05 13:10:30;;;;;;;6.78;5.15;;;;;;;11.52;68.49;96898.75;6219391;23;20020;-77
2022/11/05 13:13:05;;;;;;;6.88;5.50;;;;;;;11.53;68.96;96900.38;6215678;23;20020;-78
2022/11/05 13:15:38;;;;;;;8.32;6.25;;;;;;;11.57;69.83;96900.00;6215638;23;20460;-77
2022/11/05 13:18:11;;;;;;;9.98;6.05;;;;;;;11.63;69.89;96904.50;6215466;23;20020;-77
2022/11/05 13:20:44;;;;;;;12.40;6.38;;;;;;;11.67;69.66;96911.81;6217431;23;20039;-80
2022/11/05 13:23:17;;;;;;;;;;;;;;;11.70;69.32;96906.22;6218122;23;20387;-77
2022/11/05 13:25:52;;;;;;;8.27;6.63;;;;;;;11.67;68.63;96908.38;6217053;23;20402;-77
2022/11/05 13:28:31;;;;;;;8.52;7.30;;;;;;;11.65;69.54;96902.53;6213228;23;20028;-77
2022/11/05 13:31:04;;;;;;;9.05;8.15;;;;;;;11.62;68.69;96910.75;6215593;23;20028;-78
2022/11/05 13:33:34;;;;;;;8.07;7.22;;;;;;;11.61;68.93;96909.09;6215685;23;20400;-77
2022/11/05 13:39:05;;;;;;;8.52;6.63;;;;;;;11.61;68.48;96911.72;6214994;23;20036;-77
2022/11/05 13:41:53;;;;;;;7.30;6.55;;;;;;;11.55;69.40;96911.44;6215685;23;20020;-78
2022/11/05 13:44:40;;;;;;;7.30;6.60;;;;;;;11.51;68.86;96919.84;6215914;23;20372;-76
2022/11/05 13:47:32;;;;;;;9.70;7.53;;;;;;;11.49;70.22;96927.84;6214754;23;20021;-77
2022/11/05 13:50:43;;;;;;;7.72;6.85;;;;;;;11.49;70.11;96932.25;6215483;23;20393;-80
2022/11/05 13:53:32;;;;;;;7.97;7.18;;;;;;;11.44;69.02;96932.00;6120468;23;20021;-77
2022/11/05 13:56:13;;;;;;;8.30;6.53;;;;;;;11.41;69.16;96934.94;6213412;23;20027;-78
2022/11/05 13:58:52;;;;;;;7.55;6.65;;;;;;;11.34;68.03;96934.84;6212454;23;20561;-78
2022/11/05 14:01:38;;;;;;;8.95;6.63;;;;;;;11.29;68.71;96938.00;6213696;23;20028;-82
2022/11/05 14:04:07;;;;;;;6.72;5.85;;;;;;;11.29;69.00;96939.81;6213268;23;20023;-78
2022/11/05 14:06:36;;;;;;;8.85;5.95;;;;;;;11.27;69.32;96939.16;6213538;23;20032;-78
2022/11/05 14:09:08;;;;;;;7.40;5.97;;;;;;;11.26;69.61;96940.16;6213929;23;20043;-78
2022/11/05 14:11:42;;;;;;;8.57;6.32;;;;;;;11.24;69.31;96934.28;6215647;23;20334;-78
2022/11/05 14:14:17;;;;;;;6.05;5.00;;;;;;;11.21;68.14;96945.09;6215247;23;20012;-81
2022/11/05 14:16:52;;;;;;;6.30;5.30;;;;;;;11.18;69.46;96950.69;6215386;23;20023;-78
2022/11/05 14:19:34;;;;;;;6.63;5.82;;;;;;;11.18;69.43;96941.03;6215022;23;20052;-78
2022/11/05 14:22:35;;;;;;;7.53;6.00;;;;;;;11.17;69.88;96944.63;6215458;23;20024;-78
2022/11/05 14:25:55;;;;;;;5.93;5.10;;;;;;;11.16;68.96;96950.84;6215043;23;20027;-78
2022/11/05 14:28:43;;;;;;;6.47;4.93;;;;;;;11.11;68.27;96945.34;6215119;23;20016;-76
2022/11/05 14:31:32;;;;;;;5.75;4.85;;;;;;;11.06;68.40;96943.28;6215614;23;20099;-79
2022/11/05 14:34:23;;;;;;;4.90;4.43;;;;;;;11.06;69.07;96943.28;6214893;23;20040;-78
2022/11/05 14:37:32;;;;;;;5.97;5.35;;;;;;;11.05;69.37;96957.31;6215473;23;20094;-77
2022/11/05 14:40:41;;;;;;;6.53;4.90;;;;;;;11.03;69.17;96954.06;6215990;23;20024;-86
2022/11/05 14:43:20;;;;;;;7.03;5.50;;;;;;;11.00;69.78;96959.63;6207365;23;20017;-78
2022/11/05 14:45:59;;;;;;;6.32;5.07;;;;;;;10.97;70.66;96957.34;6215833;23;20027;-78
2022/11/05 14:48:39;;;;;;;6.55;5.22;;;;;;;10.95;71.05;96967.16;6215226;23;20025;-78
2022/11/05 14:51:25;;;;;;;6.78;5.60;;;;;;;10.92;69.95;96972.75;6215121;23;20016;-79
2022/11/05 14:54:00;;;;;;;6.10;5.40;;;;;;;10.85;70.01;96966.59;6214365;22;20571;-78
2022/11/05 14:56:29;;;;;;;7.53;6.07;;;;;;;10.80;70.08;96968.91;6183850;23;20353;-77
2022/11/05 14:59:30;;;;;;;8.18;4.97;;;;;;;10.80;70.19;96974.13;6183154;23;20024;-78
2022/11/05 15:02:04;;;;;;;7.97;5.70;;;;;;;10.79;69.52;96967.28;6184498;23;20100;-78
2022/11/05 15:04:34;;;;;;;6.13;5.53;;;;;;;10.80;70.59;96966.28;6184607;23;20048;-79
2022/11/05 15:07:35;;;;;;;6.25;5.40;;;;;;;10.82;72.43;96966.94;6185302;23;20029;-78
2022/11/05 15:10:08;;;;;;;6.78;5.65;;;;;;;10.84;71.37;96983.22;6183581;23;20080;-79
2022/11/05 15:12:41;;;;;;;6.57;5.78;;;;;;;10.86;71.08;96976.03;6184021;23;20021;-79
2022/11/05 15:15:31;;;;;;;13.27;6.82;;;;;;;10.88;71.36;96974.88;6186129;23;20032;-78
2022/11/05 15:18:04;;;;;;;8.30;6.80;;;;;;;10.88;70.60;96976.69;6181821;23;20338;-78
2022/11/05 15:20:38;;;;;;;10.60;6.97;;;;;;;10.87;70.81;96975.88;6199945;23;20032;-79
2022/11/05 15:23:12;;;;;;;8.40;6.78;;;;;;;10.88;71.00;96979.28;6202869;23;20049;-78
2022/11/05 15:25:48;;;;;;;8.70;6.20;;;;;;;10.85;70.84;96983.06;6194404;23;20021;-79
2022/11/05 15:28:30;;;;;;;7.90;6.38;;;;;;;10.84;70.13;96983.22;6184284;23;20017;-78
2022/11/05 15:31:01;;;;;;;8.85;7.30;;;;;;;10.83;70.12;96999.88;6184635;23;20021;-79
2022/11/05 15:33:30;;;;;;;9.52;7.07;;;;;;;10.82;71.33;96987.81;6184441;23;20028;-78
2022/11/05 15:36:09;;;;;;;8.05;7.18;;;;;;;10.82;70.43;96999.09;6184894;23;20445;-78
2022/11/05 15:38:37;;;;;;;9.65;8.27;;;;;;;10.79;70.52;96993.38;6184637;23;20028;-78
2022/11/05 15:41:14;;;;;;;10.05;7.93;;;;;;;10.78;70.88;96996.97;6184892;23;20021;-78
2022/11/05 15:43:43;;;;;;;10.07;7.72;;;;;;;10.76;71.44;97004.16;6185698;23;20021;-78
2022/11/05 15:46:17;;;;;;;10.95;8.25;;;;;;;10.75;71.27;96997.31;6186593;23;20044;-78
2022/11/05 15:48:48;;;;;;;11.75;8.50;;;;;;;10.71;71.09;96997.69;6185702;23;20017;-78
2022/11/05 15:51:16;;;;;;;8.57;6.70;;;;;;;10.67;70.36;96996.41;6185908;23;20025;-79
2022/11/05 15:53:59;;;;;;;8.57;7.15;;;;;;;10.67;70.83;97006.84;6186071;23;20021;-78
2022/11/05 15:56:50;;;;;;;11.00;7.95;;;;;;;10.64;70.23;97011.56;6186064;23;20025;-78
2022/11/05 15:59:20;;;;;;;10.85;6.53;;;;;;;10.62;71.34;97008.31;6184924;23;20017;-77
2022/11/05 16:01:50;;;;;;;10.20;7.38;;;;;;;10.64;71.90;97012.38;6185668;23;20330;-77
2022/11/05 16:04:21;;;;;;;13.70;9.05;;;;;;;10.63;71.92;97010.78;6185767;23;20025;-77
2022/11/05 16:06:51;;;;;;;12.48;8.02;;;;;;;10.61;72.18;97015.34;6186175;23;20024;-77
2022/11/05 16:09:24;;;;;;;10.40;7.80;;;;;;;10.61;71.55;97011.94;6192079;23;20025;-77
2022/11/05 16:12:13;;;;;;;10.95;8.25;;;;;;;10.62;72.77;97014.34;6200607;23;20025;-77
2022/11/05 16:14:41;;;;;;;11.25;7.78;;;;;;;10.59;71.75;97012.09;6190110;23;20031;-78
2022/11/05 16:17:20;;;;;;;11.10;7.45;;;;;;;10.57;72.13;97014.06;6186446;23;20021;-77
2022/11/05 16:19:50;;;;;;;9.80;7.55;;;;;;;10.52;72.21;97008.56;6185874;23;20032;-77
2022/11/05 16:22:18;;;;;;;13.75;9.07;;;;;;;10.49;70.93;97019.31;6186069;23;20024;-77
2022/11/05 16:24:47;;;;;;;12.35;8.07;;;;;;;10.49;72.38;97019.31;6185969;23;20025;-77
2022/11/05 16:27:16;;;;;;;11.30;8.20;;;;;;;10.49;71.64;97019.31;6185560;23;20025;-78
2022/11/05 16:29:50;;;;;;;11.77;8.13;;;;;;;10.50;73.14;97021.75;6185813;23;20075;-78
2022/11/05 16:32:21;;;;;;;9.77;8.23;;;;;;;10.54;72.99;97013.56;6185661;23;20461;-77
2022/11/05 16:35:00;;;;;;;11.55;9.00;;;;;;;10.54;72.14;97024.84;6185564;23;20017;-77
2022/11/05 16:37:35;;;;;;;9.95;7.70;;;;;;;10.54;73.79;97035.28;6186291;23;20028;-77
2022/11/05 16:40:03;;;;;;;11.52;8.88;;;;;;;10.55;73.96;97036.88;6185091;23;20032;-77
2022/11/05 16:42:39;;;;;;;13.68;9.20;;;;;;;10.54;72.36;97035.28;6185907;23;20028;-77
2022/11/05 16:45:10;;;;;;;12.90;9.43;;;;;;;10.50;72.94;97044.44;6185781;23;20021;-77
2022/11/05 16:47:37;;;;;;;10.77;8.23;;;;;;;10.48;73.88;97043.78;6185905;23;20026;-77
2022/11/05 16:50:15;;;;;;;13.75;10.68;;;;;;;10.51;75.19;97049.44;6185636;23;20032;-77
2022/11/05 16:52:44;;;;;;;16.45;11.38;;;;;;;10.49;72.82;97055.81;6185851;23;20032;-77
2022/11/05 16:55:13;;;;;;;13.88;9.25;;;;;;;10.45;73.47;97055.38;6185231;23;20021;-77
2022/11/05 16:57:42;;;;;;;13.75;10.07;;;;;;;10.48;74.24;97064.66;6185644;23;20032;-77
2022/11/05 17:00:14;;;;;;;12.68;9.43;;;;;;;10.52;74.90;97071.97;6185618;23;20021;-77
2022/11/05 17:02:42;;;;;;;15.17;10.03;;;;;;;10.52;73.97;97060.72;6185636;23;20028;-77
2022/11/05 17:05:18;;;;;;;14.50;9.75;;;;;;;10.51;74.04;97075.53;6185650;23;20021;-77
2022/11/05 17:07:46;;;;;;;12.48;9.57;;;;;;;10.54;74.64;97063.13;6185405;23;20025;-77
2022/11/05 17:10:14;;;;;;;12.70;9.77;;;;;;;10.55;74.78;97043.91;6185133;23;20357;-77
2022/11/05 17:12:42;;;;;;;14.40;9.82;;;;;;;10.54;74.60;97045.72;6184943;23;20021;-77
2022/11/05 17:15:22;;;;;;;11.00;8.50;;;;;;;10.54;75.06;97050.09;6184936;23;20017;-77
2022/11/05 17:17:51;;;;;;;13.93;9.90;;;;;;;10.55;74.42;97054.34;6184699;23;20036;-77
2022/11/05 17:20:33;;;;;;;12.90;9.73;;;;;;;10.55;75.13;97060.38;6184954;23;20055;-77
2022/11/05 17:23:08;;;;;;;12.05;9.05;;;;;;;10.55;74.91;97070.81;6183634;23;20028;-77
2022/11/05 17:25:37;;;;;;;12.57;9.52;;;;;;;10.54;74.63;97071.81;6184668;23;20532;-77
2022/11/05 17:28:05;;;;;;;11.77;9.43;;;;;;;10.51;74.80;97057.28;6185269;23;20025;-77
2022/11/05 17:30:33;;;;;;;16.33;10.18;;;;;;;10.50;73.83;97047.03;6184970;23;20160;-77
2022/11/05 17:33:00;;;;;;;13.07;9.57;;;;;;;10.46;73.53;97048.34;6183693;23;20025;-77
2022/11/05 17:35:29;;;;;;;13.52;8.27;;;;;;;10.47;74.41;97068.22;6184884;23;20021;-77
2022/11/05 17:37:57;;;;;;;12.82;9.55;;;;;;;10.49;73.87;97071.47;6185098;23;20028;-77
2022/11/05 17:40:26;;;;;;;12.93;9.52;;;;;;;10.52;74.50;97081.59;6185035;23;20028;-77
2022/11/05 17:42:53;;;;;;;17.73;12.05;;;;;;;10.50;73.44;97073.13;6184092;23;20370;-76
2022/11/05 17:45:21;;;;;;;14.32;10.68;;;;;;;10.49;73.60;97066.25;6185002;23;20017;-74
2022/11/05 17:47:49;;;;;;;14.27;10.88;;;;;;;10.50;73.97;97065.28;6185181;23;20025;-77
2022/11/05 17:50:17;;;;;;;14.55;10.40;;;;;;;10.49;73.94;97072.31;6185188;23;20096;-76
2022/11/05 17:52:46;;;;;;;15.57;11.27;;;;;;;10.43;73.97;97069.53;6184886;23;20045;-77
2022/11/05 17:55:17;;;;;;;11.77;9.20;;;;;;;10.43;75.04;97072.16;6181835;23;20370;-77
2022/11/05 17:57:46;;;;;;;13.35;10.50;;;;;;;10.48;74.92;97082.91;6190217;23;20013;-78
2022/11/05 18:00:16;;;;;;;17.85;11.55;;;;;;;10.49;74.56;97080.13;6189862;23;20108;-77
2022/11/05 18:02:44;;;;;;;14.82;10.45;;;;;;;10.51;74.68;97085.16;6186642;23;20025;-77
2022/11/05 18:05:13;;;;;;;13.85;10.55;;;;;;;10.52;75.20;97086.81;6184865;23;20100;-78
2022/11/05 18:07:41;;;;;;;12.68;9.82;;;;;;;10.55;75.58;97081.22;6184542;23;20031;-77
2022/11/05 18:10:10;;;;;;;17.92;11.93;;;;;;;10.50;73.88;97083.53;6184886;23;20366;-77
2022/11/05 18:12:38;;;;;;;13.50;10.23;;;;;;;10.47;74.46;97086.47;6184534;23;20021;-77
2022/11/05 18:15:08;;;;;;;12.63;9.88;;;;;;;10.48;74.97;97083.72;6184974;23;20353;-77
2022/11/05 18:17:36;;;;;;;17.25;11.63;;;;;;;10.49;74.44;97089.72;6184404;23;20032;-77
2022/11/05 18:20:07;;;;;;;16.48;11.77;;;;;;;10.44;73.66;97084.22;6184375;23;20021;-77
2022/11/05 18:22:39;;;;;;;16.65;11.35;;;;;;;10.37;73.40;97093.72;6184287;23;20033;-77
2022/11/05 18:25:10;;;;;;;11.75;9.57;;;;;;;10.32;74.06;97086.38;6184826;23;20021;-77
2022/11/05 18:27:38;;;;;;;14.07;10.70;;;;;;;10.29;74.15;97095.34;6184199;23;20483;-77
2022/11/05 18:30:08;;;;;;;15.10;11.00;;;;;;;10.27;73.63;97094.66;6184311;23;20326;-77
2022/11/05 18:32:35;;;;;;;12.93;9.57;;;;;;;10.24;74.60;97089.78;6184093;23;20025;-77
2022/11/05 18:35:04;;;;;;;11.55;9.60;;;;;;;10.26;75.38;97098.25;6184638;23;20049;-77
2022/11/05 18:37:31;;;;;;;13.85;10.85;;;;;;;10.29;75.43;97097.94;6184095;23;20021;-77
2022/11/05 18:40:00;;;;;;;15.00;10.52;;;;;;;10.33;75.81;97108.06;6184279;23;20021;-76
2022/11/05 18:42:29;;;;;;;13.98;10.10;;;;;;;10.27;74.34;97105.09;6184415;23;20099;-77
2022/11/05 18:44:56;;;;;;;15.68;10.48;;;;;;;10.22;75.12;97112.59;6184165;23;20013;-77
2022/11/05 18:47:24;;;;;;;13.98;10.07;;;;;;;10.18;73.86;97111.31;6184143;23;20029;-77
2022/11/05 18:49:51;;;;;;;18.45;13.98;;;;;;;10.09;72.76;97113.13;6184479;23;20400;-77
2022/11/05 18:52:19;;;;;;;18.77;12.63;;;;;;;10.00;72.92;97113.31;6184730;23;20021;-76
2022/11/05 18:54:46;;;;;;;16.63;12.30;;;;;;;9.96;73.53;97106.78;6184230;23;20025;-76
2022/11/05 18:57:14;;;;;;;27.25;17.33;;;;;;;9.90;73.12;97103.88;6184146;23;20035;-76
2022/11/05 18:59:45;;;;;;;32.30;21.38;;;;;;;9.85;72.91;97106.16;6184912;23;20052;-76
2022/11/05 19:02:14;;;;;;;22.85;17.25;;;;;;;9.80;72.40;97098.03;6199927;23;20025;-77
2022/11/05 19:04:43;;;;;;;20.55;14.20;;;;;;;9.74;72.05;97100.47;6197126;23;20028;-77
2022/11/05 19:07:31;;;;;;;19.40;14.30;;;;;;;9.69;71.96;97098.34;6185757;23;20465;-76
2022/11/05 19:09:59;;;;;;;15.15;12.60;;;;;;;9.62;71.94;97110.38;6184525;23;20021;-77
2022/11/05 19:12:26;;;;;;;14.95;11.95;;;;;;;9.60;73.40;97107.97;6184966;23;20021;-76
2022/11/05 19:14:55;;;;;;;15.45;12.35;;;;;;;9.67;74.67;97116.75;6184498;23;20033;-77
2022/11/05 19:17:29;;;;;;;16.35;12.18;;;;;;;9.76;75.35;97112.34;6184864;23;20085;-77
2022/11/05 19:19:57;;;;;;;16.55;12.10;;;;;;;9.83;75.52;97112.50;6184328;23;20063;-77
2022/11/05 19:22:24;;;;;;;16.10;11.40;;;;;;;9.85;75.18;97113.97;6192224;23;20033;-77
2022/11/05 19:24:52;;;;;;;17.83;13.40;;;;;;;9.84;74.48;97114.97;6193022;23;20025;-77
2022/11/05 19:27:20;;;;;;;15.70;12.38;;;;;;;9.83;74.94;97112.50;6192562;23;20017;-77
2022/11/05 19:29:47;;;;;;;17.73;13.00;;;;;;;9.79;73.94;97117.22;6185303;23;20330;-77
2022/11/05 19:32:16;;;;;;;20.40;14.55;;;;;;;9.73;73.41;97117.91;6185245;23;20025;-77
2022/11/05 19:34:44;;;;;;;16.27;12.43;;;;;;;9.67;73.44;97123.75;6185215;23;20072;-79
2022/11/05 19:37:11;;;;;;;22.02;14.10;;;;;;;9.64;72.89;97124.06;6185048;23;20029;-78
2022/11/05 19:39:40;;;;;;;16.55;13.43;;;;;;;9.59;72.96;97118.53;6185438;23;20021;-73
2022/11/05 19:42:07;;;;;;;17.35;13.27;;;;;;;9.60;72.61;97117.53;6184834;23;20028;-73
2022/11/05 19:44:35;;;;;;;19.95;15.60;;;;;;;9.57;72.49;97123.91;6184917;23;20539;-73
2022/11/05 19:47:02;;;;;;;19.65;14.23;;;;;;;9.51;72.31;97119.38;6188009;23;20021;-81
2022/11/05 19:49:39;;;;;;;18.13;14.10;;;;;;;9.48;73.62;97120.47;6192548;23;20099;-81
2022/11/05 20:08:19;;;;;;;16.38;11.63;;;;;;;9.48;75.51;97115.28;6241891;23;20016;-82
2022/11/05 20:54:35;;;;;;;20.63;13.40;;;;;;;8.09;73.34;97138.19;6213973;22;20226;-76
2022/11/05 20:57:03;;;;;;;18.02;13.38;;;;;;;8.08;73.39;97133.94;6215667;23;20265;-76
2022/11/05 20:59:30;;;;;;;18.55;13.77;;;;;;;8.03;73.20;97134.41;6215360;23;20027;-79
2022/11/05 21:01:58;;;;;;;23.73;13.73;;;;;;;7.98;73.36;97143.59;6215716;23;20028;-79
2022/11/05 21:04:25;;;;;;;17.13;12.35;;;;;;;7.95;73.42;97151.72;6215904;23;20028;-79
2022/11/05 21:06:53;;;;;;;19.40;13.38;;;;;;;7.91;73.59;97148.59;6215171;23;20032;-76